Time;durP1;ratioP1;P1;durP2;ratioP2;P2;SDS_P1;SDS_P2;PMS_P1;PMS_P2;Temp;Humidity;BMP_temperature;BMP_pressure;BME280_temperature;BME280_humidity;BME280_pressure;Samples;Min_cycle;Max_cycle;Signal;HPM_P1;HPM_P2
2024/04/14 00:01:45;;;;;;;2.58;1.90;;;21.10;89.50;;;;;;5435594;26;20624;-43
2024/04/14 00:04:19;;;;;;;2.30;2.10;;;21.10;89.50;;;;;;5436395;26;20238;-43
2024/04/14 00:06:49;;;;;;;3.22;2.55;;;21.10;89.60;;;;;;5438315;26;20233;-40
2024/04/14 00:09:17;;;;;;;2.47;2.10;;;21.10;90.10;;;;;;5422746;26;20264;-46
2024/04/14 00:11:43;;;;;;;2.25;2.05;;;21.10;89.70;;;;;;5416376;26;20231;-45
2024/04/14 00:14:18;;;;;;;2.20;1.90;;;21.10;89.70;;;;;;5430165;26;20998;-43
2024/04/14 00:16:48;;;;;;;2.10;1.90;;;21.10;89.80;;;;;;5420289;26;20678;-36
2024/04/14 00:19:21;;;;;;;1.88;1.70;;;21.10;90.30;;;;;;5439989;26;20266;-40
2024/04/14 00:21:48;;;;;;;2.50;2.00;;;21.10;90.30;;;;;;5436359;26;20273;-45
2024/04/14 00:24:19;;;;;;;2.72;2.20;;;21.00;89.80;;;;;;5434054;26;20330;-39
2024/04/14 00:26:48;;;;;;;2.10;2.00;;;21.00;89.90;;;;;;5433892;26;20938;-42
2024/04/14 00:29:22;;;;;;;3.60;2.22;;;21.00;90.00;;;;;;5433621;26;20396;-49
2024/04/14 00:31:50;;;;;;;2.70;2.50;;;21.00;90.00;;;;;;5432223;26;20856;-41
2024/04/14 00:34:27;;;;;;;2.60;2.03;;;21.00;90.00;;;;;;5429202;26;20885;-42
2024/04/14 00:36:52;;;;;;;2.25;2.00;;;21.00;90.10;;;;;;5421804;26;20238;-45
2024/04/14 00:39:25;;;;;;;2.70;2.50;;;21.00;90.10;;;;;;5439758;26;20709;-38
2024/04/14 00:41:52;;;;;;;2.55;2.35;;;20.90;90.10;;;;;;5428263;26;20458;-42
2024/04/14 00:44:25;;;;;;;2.33;2.13;;;20.90;90.10;;;;;;5435018;26;20258;-43
2024/04/14 00:46:54;;;;;;;2.15;1.95;;;21.00;90.20;;;;;;5419271;26;20666;-44
2024/04/14 00:49:28;;;;;;;3.47;2.03;;;21.00;90.20;;;;;;5425489;26;21130;-43
2024/04/14 00:52:06;;;;;;;2.38;1.88;;;20.90;90.20;;;;;;5431962;26;21408;-43
2024/04/14 00:54:40;;;;;;;2.60;2.40;;;20.90;90.30;;;;;;5425952;26;20655;-44
2024/04/14 00:57:06;;;;;;;2.00;1.90;;;20.90;90.30;;;;;;5414835;26;20351;-42
2024/04/14 00:59:38;;;;;;;2.60;2.15;;;20.90;90.30;;;;;;5427482;26;20239;-40
2024/04/14 01:02:10;;;;;;;2.30;2.10;;;21.00;90.80;;;;;;5434231;26;20904;-44
2024/04/14 01:04:45;;;;;;;2.40;1.92;;;20.90;90.40;;;;;;5419093;26;20234;-44
2024/04/14 01:07:12;;;;;;;2.72;2.53;;;20.80;90.40;;;;;;5427641;26;20358;-41
2024/04/14 01:09:48;;;;;;;2.20;1.92;;;20.80;90.40;;;;;;5428125;26;20230;-44
2024/04/14 01:12:18;;;;;;;2.20;1.98;;;20.80;90.50;;;;;;5411782;26;20382;-45
2024/04/14 01:14:46;;;;;;;2.00;1.80;;;20.90;90.50;;;;;;5433602;26;20610;-42
2024/04/14 01:17:15;;;;;;;2.03;1.83;;;20.80;90.50;;;;;;5435066;26;20354;-44
2024/04/14 01:19:46;;;;;;;2.08;1.88;;;20.80;90.60;;;;;;5431686;26;20269;-39
2024/04/14 01:22:13;;;;;;;2.58;2.38;;;20.80;90.70;;;;;;5444512;26;20335;-39
2024/04/14 01:24:49;;;;;;;4.47;1.92;;;20.80;90.70;;;;;;5427624;26;20303;-44
2024/04/14 01:27:19;;;;;;;2.70;2.17;;;20.90;90.80;;;;;;5425405;26;20249;-46
2024/04/14 01:29:48;;;;;;;2.80;1.98;;;20.70;90.70;;;;;;5433596;26;20335;-39
2024/04/14 01:32:16;;;;;;;2.50;2.20;;;20.70;90.80;;;;;;5416665;26;20265;-47
2024/04/14 01:34:47;;;;;;;1.80;1.70;;;20.70;90.80;;;;;;5419093;26;20261;-37
2024/04/14 01:37:15;;;;;;;2.50;2.30;;;20.70;90.80;;;;;;5427347;26;20235;-47
2024/04/14 01:39:46;;;;;;;2.17;1.98;;;20.70;90.80;;;;;;5434815;26;21155;-44
2024/04/14 01:42:19;;;;;;;2.20;2.00;;;20.70;90.90;;;;;;5421918;26;20729;-44
2024/04/14 01:44:52;;;;;;;2.65;2.13;;;20.70;90.90;;;;;;5410789;26;20317;-39
2024/04/14 01:47:18;;;;;;;2.22;1.98;;;20.70;90.90;;;;;;5430743;26;20230;-45
2024/04/14 01:49:49;;;;;;;2.92;2.53;;;20.60;90.90;;;;;;5425996;26;20607;-41
2024/04/14 01:52:15;;;;;;;2.13;1.98;;;20.60;90.90;;;;;;5417111;26;20261;-42
2024/04/14 01:54:48;;;;;;;2.33;1.70;;;20.60;90.90;;;;;;5441933;26;20987;-44
2024/04/14 01:57:19;;;;;;;2.45;2.13;;;20.70;91.10;;;;;;5414133;26;20280;-39
2024/04/14 01:59:55;;;;;;;1.45;1.35;;;20.60;91.00;;;;;;5445420;26;20230;-47
2024/04/14 02:02:23;;;;;;;2.03;1.90;;;20.60;91.00;;;;;;5428153;26;20265;-41
2024/04/14 02:04:59;;;;;;;2.83;2.50;;;20.60;91.00;;;;;;5424380;26;20301;-42
2024/04/14 02:07:28;;;;;;;2.85;2.10;;;20.70;91.30;;;;;;5423460;26;21562;-45
2024/04/14 02:10:01;;;;;;;2.33;1.70;;;20.60;91.10;;;;;;5445665;26;20282;-44
2024/04/14 02:12:31;;;;;;;2.08;1.88;;;20.60;91.20;;;;;;5431080;26;20239;-41
2024/04/14 02:15:11;;;;;;;2.05;1.85;;;20.60;91.20;;;;;;5433050;26;20300;-44
2024/04/14 02:17:41;;;;;;;1.85;1.65;;;20.60;91.20;;;;;;5436303;26;20238;-45
2024/04/14 02:20:25;;;;;;;1.75;1.65;;;20.60;91.30;;;;;;5408319;26;20330;-46
2024/04/14 02:22:52;;;;;;;1.63;1.52;;;20.60;91.30;;;;;;5417963;26;20305;-39
2024/04/14 02:25:22;;;;;;;2.65;2.10;;;20.50;91.30;;;;;;5436759;26;20242;-41
2024/04/14 02:27:55;;;;;;;2.72;2.25;;;20.50;91.30;;;;;;5434653;26;20330;-42
2024/04/14 02:30:26;;;;;;;2.15;1.95;;;20.50;91.40;;;;;;5435839;26;20239;-45
2024/04/14 02:32:54;;;;;;;1.88;1.70;;;20.40;91.30;;;;;;5443158;26;20563;-46
2024/04/14 02:35:36;;;;;;;2.40;2.20;;;20.70;91.50;;;;;;5420410;26;20301;-43
2024/04/14 02:38:01;;;;;;;2.65;2.45;;;20.50;91.40;;;;;;5423997;26;20280;-43
2024/04/14 02:40:33;;;;;;;1.97;1.77;;;20.50;91.50;;;;;;5436306;26;20238;-44
2024/04/14 02:43:05;;;;;;;1.70;1.60;;;20.50;91.50;;;;;;5435781;26;20338;-44
2024/04/14 02:45:36;;;;;;;2.35;2.15;;;20.50;91.60;;;;;;5441026;26;20734;-45
2024/04/14 02:48:03;;;;;;;1.80;1.65;;;20.40;91.50;;;;;;5429061;26;20323;-44
2024/04/14 02:50:35;;;;;;;1.90;1.70;;;20.50;91.60;;;;;;5424972;26;22346;-45
2024/04/14 02:53:16;;;;;;;1.70;1.60;;;20.40;91.60;;;;;;5431041;26;20851;-36
2024/04/14 02:55:48;;;;;;;2.13;1.92;;;20.40;91.60;;;;;;5414438;26;20331;-47
2024/04/14 02:58:17;;;;;;;2.20;2.00;;;20.40;91.70;;;;;;5426237;26;20366;-42
2024/04/14 03:00:49;;;;;;;1.90;1.80;;;20.40;91.70;;;;;;5435111;26;20235;-41
2024/04/14 03:03:19;;;;;;;2.05;1.85;;;20.40;91.70;;;;;;5439633;26;20247;-41
2024/04/14 03:06:03;;;;;;;2.13;1.85;;;20.40;91.80;;;;;;5431765;26;20367;-36
2024/04/14 03:08:33;;;;;;;2.33;2.00;;;20.40;91.80;;;;;;5430205;26;20792;-37
2024/04/14 03:11:06;;;;;;;2.40;2.20;;;20.40;91.90;;;;;;5417748;26;20600;-42
2024/04/14 03:13:36;;;;;;;2.17;1.98;;;20.40;91.90;;;;;;5442729;26;20289;-41
2024/04/14 03:16:09;;;;;;;1.60;1.48;;;20.40;91.90;;;;;;5426783;26;21099;-40
2024/04/14 03:18:34;;;;;;;1.85;1.75;;;20.40;92.00;;;;;;5435950;26;21583;-46
2024/04/14 03:21:04;;;;;;;2.13;1.93;;;20.40;92.00;;;;;;5420021;26;20306;-41
2024/04/14 03:23:30;;;;;;;2.20;2.00;;;20.30;92.00;;;;;;5427264;26;20314;-43
2024/04/14 03:26:01;;;;;;;1.98;1.80;;;20.30;92.00;;;;;;5432270;26;20306;-43
2024/04/14 03:28:27;;;;;;;3.25;2.05;;;20.30;92.00;;;;;;5447210;26;20239;-39
2024/04/14 03:31:01;;;;;;;2.08;1.88;;;20.30;92.00;;;;;;5457668;26;20294;-39
2024/04/14 03:33:36;;;;;;;2.22;2.03;;;20.30;92.10;;;;;;5440768;26;20337;-42
2024/04/14 03:36:24;;;;;;;2.10;1.90;;;20.30;92.10;;;;;;5432496;26;20238;-43
2024/04/14 03:38:56;;;;;;;2.20;2.00;;;20.30;92.10;;;;;;5435005;26;20273;-45
2024/04/14 03:41:29;;;;;;;1.95;1.75;;;20.30;92.10;;;;;;5425893;26;20235;-41
2024/04/14 03:44:04;;;;;;;2.97;2.08;;;20.30;92.50;;;;;;5426851;26;20278;-44
2024/04/14 03:46:34;;;;;;;1.85;1.65;;;20.30;92.20;;;;;;5431497;26;20615;-44
2024/04/14 03:49:12;;;;;;;1.55;1.45;;;20.20;92.20;;;;;;5428156;26;20331;-41
2024/04/14 03:51:37;;;;;;;2.60;1.70;;;20.20;92.20;;;;;;5418477;26;20280;-39
2024/04/14 03:54:07;;;;;;;2.27;2.07;;;20.20;92.20;;;;;;5424779;26;20234;-46
2024/04/14 03:56:34;;;;;;;2.10;1.95;;;20.20;92.20;;;;;;5424892;26;21734;-40
2024/04/14 03:59:05;;;;;;;2.38;1.63;;;20.20;92.20;;;;;;5441384;26;20778;-39
2024/04/14 04:01:30;;;;;;;2.38;2.17;;;20.20;92.20;;;;;;5428042;26;20374;-43
2024/04/14 04:04:00;;;;;;;2.17;1.90;;;20.20;92.30;;;;;;5432656;26;20231;-42
2024/04/14 04:06:35;;;;;;;1.40;1.30;;;20.20;92.30;;;;;;5441136;26;20235;-43
2024/04/14 04:09:16;;;;;;;2.38;1.63;;;20.20;92.30;;;;;;5428073;26;20341;-43
2024/04/14 04:11:45;;;;;;;2.13;1.50;;;20.10;92.30;;;;;;5430200;26;20242;-41
2024/04/14 04:14:14;;;;;;;2.30;1.58;;;20.20;92.40;;;;;;5435198;26;20466;-42
2024/04/14 04:17:07;;;;;;;1.60;1.48;;;20.20;92.40;;;;;;5438502;26;20273;-44
2024/04/14 04:19:33;;;;;;;1.38;1.23;;;20.20;92.40;;;;;;5431709;26;20238;-45
2024/04/14 04:22:09;;;;;;;1.93;1.70;;;20.00;92.30;;;;;;5437600;26;20235;-45
2024/04/14 04:24:44;;;;;;;2.00;1.80;;;20.10;92.40;;;;;;5434737;26;20557;-43
2024/04/14 04:27:20;;;;;;;1.90;1.55;;;20.10;92.50;;;;;;5426339;26;20234;-43
2024/04/14 04:29:48;;;;;;;1.92;1.52;;;20.10;92.50;;;;;;5433413;26;20740;-41
2024/04/14 04:32:25;;;;;;;2.67;1.90;;;20.20;92.60;;;;;;5422953;26;20234;-42
2024/04/14 04:34:54;;;;;;;2.30;1.77;;;20.10;92.60;;;;;;5408100;26;20227;-47
2024/04/14 04:37:29;;;;;;;2.05;1.73;;;20.10;92.60;;;;;;5417915;26;20757;-39
2024/04/14 04:40:00;;;;;;;2.13;1.70;;;20.10;92.60;;;;;;5422352;26;20882;-43
2024/04/14 04:42:30;;;;;;;1.83;1.63;;;20.10;92.60;;;;;;5425540;26;20872;-41
2024/04/14 04:45:04;;;;;;;1.80;1.70;;;20.10;92.70;;;;;;5436890;26;20231;-42
2024/04/14 04:47:48;;;;;;;1.50;1.40;;;20.10;92.70;;;;;;5424046;26;20309;-44
2024/04/14 04:50:21;;;;;;;2.10;1.40;;;20.10;92.70;;;;;;5416673;26;20222;-42
2024/04/14 04:53:01;;;;;;;1.70;1.60;;;20.10;92.80;;;;;;5430216;26;20290;-43
2024/04/14 04:55:32;;;;;;;1.52;1.42;;;20.10;92.80;;;;;;5433862;26;20315;-46
2024/04/14 04:58:06;;;;;;;2.15;1.38;;;20.10;92.80;;;;;;5435258;26;20643;-40
2024/04/14 05:00:41;;;;;;;1.58;1.48;;;20.10;92.80;;;;;;5432532;26;20264;-42
2024/04/14 05:03:15;;;;;;;2.00;1.80;;;20.10;92.90;;;;;;5429196;26;20226;-46
2024/04/14 05:06:02;;;;;;;1.50;1.40;;;20.10;92.90;;;;;;5410693;26;20792;-39
2024/04/14 05:08:35;;;;;;;2.88;1.73;;;20.00;92.90;;;;;;5428271;26;20334;-46
2024/04/14 05:11:15;;;;;;;1.98;1.60;;;20.00;92.90;;;;;;5415911;26;20229;-45
2024/04/14 05:13:50;;;;;;;2.10;1.90;;;20.00;93.00;;;;;;5441611;26;20225;-47
2024/04/14 05:16:22;;;;;;;1.52;1.33;;;20.00;93.00;;;;;;5421238;26;20225;-39
2024/04/14 05:18:57;;;;;;;1.55;1.45;;;20.10;93.00;;;;;;5435229;26;20368;-41
2024/04/14 05:21:27;;;;;;;1.67;1.58;;;20.00;93.00;;;;;;5425564;26;20261;-44
2024/04/14 05:24:00;;;;;;;1.52;1.42;;;20.00;93.00;;;;;;5439707;26;20317;-43
2024/04/14 05:26:28;;;;;;;1.48;1.38;;;20.00;93.10;;;;;;5434792;26;20244;-39
2024/04/14 05:28:58;;;;;;;2.08;1.50;;;20.00;93.10;;;;;;5436887;26;20273;-42
2024/04/14 05:31:29;;;;;;;1.83;1.73;;;20.00;93.10;;;;;;5428047;26;20774;-40
2024/04/14 05:33:59;;;;;;;1.95;1.67;;;20.00;93.10;;;;;;5443163;26;20261;-38
2024/04/14 05:36:25;;;;;;;2.15;1.90;;;20.00;93.20;;;;;;5405902;26;20326;-46
2024/04/14 05:38:58;;;;;;;2.33;1.67;;;20.00;93.20;;;;;;5430380;26;20230;-48
2024/04/14 05:41:30;;;;;;;1.83;1.73;;;20.00;93.30;;;;;;5420615;26;20579;-41
2024/04/14 05:44:02;;;;;;;1.70;1.50;;;20.00;93.30;;;;;;5431048;26;21006;-45
2024/04/14 05:46:32;;;;;;;2.85;1.95;;;20.10;93.40;;;;;;5424984;26;20599;-39
2024/04/14 05:49:03;;;;;;;2.13;1.65;;;20.00;93.30;;;;;;5443866;26;20231;-42
2024/04/14 05:51:30;;;;;;;1.75;1.33;;;19.90;93.30;;;;;;5423699;26;20338;-40
2024/04/14 05:53:58;;;;;;;2.95;1.80;;;20.00;93.30;;;;;;5437691;26;20275;-38
2024/04/14 05:56:44;;;;;;;2.00;1.80;;;20.00;93.40;;;;;;5422872;26;20738;-40
2024/04/14 05:59:16;;;;;;;2.58;1.52;;;20.10;93.40;;;;;;5428151;26;20268;-42
2024/04/14 06:01:44;;;;;;;1.85;1.58;;;20.10;93.40;;;;;;5431835;26;20236;-45
2024/04/14 06:04:13;;;;;;;2.05;1.83;;;20.10;93.20;;;;;;5424993;26;20322;-42
2024/04/14 06:06:41;;;;;;;1.52;1.42;;;20.10;93.00;;;;;;5422201;26;20308;-42
2024/04/14 06:09:17;;;;;;;1.60;1.50;;;20.10;93.10;;;;;;5429680;26;20269;-39
2024/04/14 06:11:47;;;;;;;3.15;1.80;;;20.10;93.10;;;;;;5441109;26;20242;-37
2024/04/14 06:14:22;;;;;;;2.30;2.10;;;20.10;93.10;;;;;;5444418;26;20684;-40
2024/04/14 06:16:48;;;;;;;3.50;1.80;;;20.10;93.00;;;;;;5442870;26;21345;-41
2024/04/14 06:19:17;;;;;;;2.80;1.57;;;20.10;93.10;;;;;;5435517;26;20257;-37
2024/04/14 06:21:43;;;;;;;3.30;1.80;;;20.00;93.00;;;;;;5427469;26;20471;-44
2024/04/14 06:24:17;;;;;;;5.10;2.30;;;20.10;93.00;;;;;;5433390;26;20339;-43
2024/04/14 06:26:47;;;;;;;2.65;1.67;;;20.00;92.90;;;;;;5437301;26;20229;-40
2024/04/14 06:29:20;;;;;;;2.10;1.50;;;20.10;92.90;;;;;;5433882;26;20331;-43
2024/04/14 06:31:46;;;;;;;2.60;2.40;;;20.10;92.90;;;;;;5427014;26;20268;-47
2024/04/14 06:34:14;;;;;;;2.23;1.60;;;20.10;92.80;;;;;;5431172;26;20226;-43
2024/04/14 06:36:42;;;;;;;3.92;1.70;;;20.10;92.80;;;;;;5438044;26;20327;-44
2024/04/14 06:39:11;;;;;;;1.73;1.60;;;20.10;92.80;;;;;;5459772;26;20626;-39
2024/04/14 06:41:40;;;;;;;4.28;2.03;;;20.20;92.70;;;;;;5431668;26;20238;-38
2024/04/14 06:44:11;;;;;;;1.83;1.50;;;20.20;92.70;;;;;;5435083;26;20246;-43
2024/04/14 06:46:38;;;;;;;2.65;1.70;;;20.20;92.60;;;;;;5443787;26;20243;-38
2024/04/14 06:49:09;;;;;;;3.45;1.50;;;20.20;92.50;;;;;;5408568;26;20230;-44
2024/04/14 06:51:35;;;;;;;2.53;1.98;;;20.20;92.40;;;;;;5429514;26;20543;-40
2024/04/14 06:54:08;;;;;;;2.13;1.83;;;20.20;92.40;;;;;;5434265;26;20330;-39
2024/04/14 06:56:35;;;;;;;2.85;1.75;;;20.20;92.30;;;;;;5426968;26;20524;-42
2024/04/14 06:59:06;;;;;;;5.65;1.80;;;20.30;92.20;;;;;;5440397;26;20254;-43
2024/04/14 07:01:37;;;;;;;3.15;2.00;;;20.40;92.00;;;;;;5435538;26;20270;-42
2024/04/14 07:04:08;;;;;;;1.83;1.50;;;20.40;91.80;;;;;;5440027;26;20261;-41
2024/04/14 07:06:36;;;;;;;3.38;1.88;;;20.50;91.50;;;;;;5427643;26;20339;-48
2024/04/14 07:09:07;;;;;;;3.50;1.80;;;20.60;91.30;;;;;;5441045;26;20234;-44
2024/04/14 07:11:33;;;;;;;2.33;1.58;;;20.50;91.30;;;;;;5440244;26;20242;-43
2024/04/14 07:14:01;;;;;;;4.50;1.87;;;20.50;91.30;;;;;;5441966;26;20276;-44
2024/04/14 07:16:32;;;;;;;2.92;1.77;;;20.50;91.20;;;;;;5428857;26;20846;-43
2024/04/14 07:19:06;;;;;;;2.20;1.80;;;20.40;91.30;;;;;;5432606;26;20257;-42
2024/04/14 07:21:36;;;;;;;1.98;1.77;;;20.60;91.30;;;;;;5421377;26;20342;-40
2024/04/14 07:24:09;;;;;;;3.92;1.70;;;20.60;91.00;;;;;;5427959;26;21181;-42
2024/04/14 07:26:39;;;;;;;2.83;1.77;;;20.50;90.90;;;;;;5419025;26;20235;-48
2024/04/14 07:29:08;;;;;;;2.50;1.50;;;20.60;90.80;;;;;;5422905;26;20310;-40
2024/04/14 07:31:33;;;;;;;2.28;1.70;;;20.60;90.80;;;;;;5433227;26;21126;-45
2024/04/14 07:34:05;;;;;;;4.80;1.80;;;20.60;90.60;;;;;;5420414;26;20747;-39
2024/04/14 07:36:39;;;;;;;1.77;1.60;;;20.70;90.50;;;;;;5427725;26;20689;-41
2024/04/14 07:39:16;;;;;;;3.42;1.95;;;20.70;90.60;;;;;;5435147;26;20298;-49
2024/04/14 07:41:44;;;;;;;3.03;2.20;;;20.70;90.60;;;;;;5438220;26;21146;-43
2024/04/14 07:44:14;;;;;;;1.58;1.45;;;20.60;90.60;;;;;;5428127;26;20261;-45
2024/04/14 07:46:42;;;;;;;2.85;1.65;;;20.70;90.60;;;;;;5434493;26;20739;-44
2024/04/14 07:49:18;;;;;;;3.47;2.20;;;20.60;90.50;;;;;;5432699;26;20269;-43
2024/04/14 07:51:51;;;;;;;4.07;1.95;;;20.70;90.50;;;;;;5431223;26;20241;-40
2024/04/14 07:54:22;;;;;;;2.58;1.55;;;20.60;90.40;;;;;;5421806;26;20238;-40
2024/04/14 07:56:53;;;;;;;4.25;1.25;;;20.60;90.40;;;;;;5430993;26;21047;-46
2024/04/14 07:59:23;;;;;;;2.30;1.45;;;20.70;90.30;;;;;;5431669;26;20270;-47
2024/04/14 08:01:50;;;;;;;2.00;1.70;;;20.70;90.50;;;;;;5430015;26;20277;-47
2024/04/14 08:04:24;;;;;;;2.33;1.60;;;20.70;90.60;;;;;;5411928;26;20306;-46
2024/04/14 08:06:53;;;;;;;2.53;2.15;;;20.70;90.50;;;;;;5437217;26;20908;-43
2024/04/14 08:09:21;;;;;;;1.70;1.52;;;20.70;90.20;;;;;;5426906;26;20234;-43
2024/04/14 08:11:51;;;;;;;3.75;2.13;;;20.60;88.20;;;;;;5420675;26;20350;-41
2024/04/14 08:14:21;;;;;;;6.50;2.00;;;20.60;86.80;;;;;;5438721;26;20745;-39
2024/04/14 08:16:51;;;;;;;2.28;2.00;;;20.60;84.30;;;;;;5428682;26;20246;-41
2024/04/14 08:19:21;;;;;;;4.88;2.42;;;20.60;83.60;;;;;;5436726;26;20345;-40
2024/04/14 08:21:49;;;;;;;5.13;2.13;;;20.60;81.50;;;;;;5425221;26;20276;-42
2024/04/14 08:24:20;;;;;;;2.90;2.10;;;20.60;82.40;;;;;;5409070;26;20250;-42
2024/04/14 08:26:48;;;;;;;7.57;2.28;;;20.70;86.00;;;;;;5427464;26;20352;-44
2024/04/14 08:29:21;;;;;;;3.70;2.00;;;20.80;86.50;;;;;;5430769;26;20234;-45
2024/04/14 08:31:54;;;;;;;3.72;1.70;;;20.80;86.40;;;;;;5416699;26;21165;-45
2024/04/14 08:34:48;;;;;;;6.32;1.85;;;20.70;86.50;;;;;;5420609;26;20593;-45
2024/04/14 08:37:20;;;;;;;3.00;1.75;;;20.70;86.20;;;;;;5423922;26;20235;-40
2024/04/14 08:39:46;;;;;;;3.83;1.85;;;20.70;86.20;;;;;;5435059;26;20908;-40
2024/04/14 08:42:15;;;;;;;4.50;1.93;;;20.80;86.00;;;;;;5427588;26;20238;-44
2024/04/14 08:44:42;;;;;;;4.45;1.50;;;20.80;86.00;;;;;;5437026;26;20284;-39
2024/04/14 08:47:16;;;;;;;3.25;1.30;;;20.80;85.80;;;;;;5433257;26;20363;-39
2024/04/14 08:49:43;;;;;;;5.63;2.40;;;20.80;85.50;;;;;;5421187;26;20904;-40
2024/04/14 08:52:15;;;;;;;3.17;1.50;;;20.80;85.70;;;;;;5436492;26;20606;-42
2024/04/14 08:54:40;;;;;;;3.08;1.92;;;20.90;85.80;;;;;;5430841;26;20246;-43
2024/04/14 08:57:14;;;;;;;2.33;1.80;;;20.90;85.30;;;;;;5431171;26;20338;-51
2024/04/14 08:59:41;;;;;;;4.93;1.75;;;20.90;85.30;;;;;;5429684;26;20260;-38
2024/04/14 09:02:14;;;;;;;2.60;1.43;;;21.00;85.10;;;;;;5436974;26;20237;-47
2024/04/14 09:04:42;;;;;;;3.65;1.63;;;21.00;85.00;;;;;;5434460;26;20602;-42
2024/04/14 09:07:16;;;;;;;4.43;1.90;;;21.00;85.00;;;;;;5407665;26;20307;-44
2024/04/14 09:09:42;;;;;;;2.65;1.90;;;21.10;84.90;;;;;;5445957;26;20269;-46
2024/04/14 09:12:17;;;;;;;4.13;1.52;;;21.10;84.70;;;;;;5436225;26;20273;-46
2024/04/14 09:14:54;;;;;;;2.40;1.63;;;21.10;84.60;;;;;;5421597;26;20326;-46
2024/04/14 09:17:20;;;;;;;2.60;1.77;;;21.10;84.70;;;;;;5435677;26;20226;-48
2024/04/14 09:19:51;;;;;;;3.30;2.20;;;21.10;84.70;;;;;;5434059;26;20238;-39
2024/04/14 09:22:22;;;;;;;3.47;1.80;;;21.10;84.70;;;;;;5428844;26;20708;-45
2024/04/14 09:24:53;;;;;;;3.05;1.80;;;21.10;84.60;;;;;;5430572;26;20246;-47
2024/04/14 09:27:23;;;;;;;2.45;1.65;;;21.00;84.60;;;;;;5431154;26;20232;-39
2024/04/14 09:29:58;;;;;;;3.17;1.85;;;21.50;96.50;;;;;;5438183;26;21481;-45
2024/04/14 09:32:24;;;;;;;1.77;1.60;;;21.10;95.50;;;;;;5433044;26;20960;-41
2024/04/14 09:34:52;;;;;;;5.77;1.73;;;21.10;95.80;;;;;;5424516;26;20464;-42
2024/04/14 09:37:24;;;;;;;3.80;2.07;;;21.20;95.40;;;;;;5433874;26;21292;-43
2024/04/14 09:39:54;;;;;;;3.03;1.87;;;21.50;99.90;;;;;;5422747;26;21451;-44
2024/04/14 09:42:25;;;;;;;3.50;1.97;;;21.60;96.90;;;;;;5431516;26;20467;-46
2024/04/14 09:44:57;;;;;;;3.80;2.27;;;21.40;90.70;;;;;;5428010;26;20520;-43
2024/04/14 09:47:27;;;;;;;4.40;2.03;;;21.10;88.10;;;;;;5433217;26;20594;-45
2024/04/14 09:49:58;;;;;;;2.70;1.57;;;21.20;88.20;;;;;;5421293;26;21185;-48
2024/04/14 09:52:32;;;;;;;2.63;1.50;;;21.30;87.80;;;;;;5417468;26;20881;-40
2024/04/14 09:55:02;;;;;;;4.20;2.23;;;21.10;84.60;;;;;;5428284;26;21241;-39
2024/04/14 09:57:30;;;;;;;3.03;1.40;;;21.30;84.70;;;;;;5445675;26;20482;-39
2024/04/14 10:00:03;;;;;;;3.40;1.77;;;21.30;84.90;;;;;;5426167;26;20991;-41
2024/04/14 10:02:36;;;;;;;2.07;1.47;;;21.10;84.80;;;;;;5438823;26;20471;-42
2024/04/14 10:05:11;;;;;;;2.57;1.40;;;21.30;85.80;;;;;;5442029;26;20526;-45
2024/04/14 10:07:39;;;;;;;1.33;1.23;;;21.40;88.20;;;;;;5421018;26;20466;-39
2024/04/14 10:10:09;;;;;;;2.63;1.70;;;21.10;89.30;;;;;;5427020;26;20535;-41
2024/04/14 10:12:41;;;;;;;2.80;1.80;;;22.20;90.20;;;;;;5440696;26;20491;-37
2024/04/14 10:15:11;;;;;;;5.87;2.30;;;21.40;89.00;;;;;;5441833;26;20797;-47
2024/04/14 10:17:39;;;;;;;2.08;1.40;;;21.40;89.80;;;;;;5424236;26;20977;-41
2024/04/14 10:20:16;;;;;;;2.90;1.70;;;21.30;88.60;;;;;;5440253;26;20647;-42
2024/04/14 10:22:47;;;;;;;13.33;1.97;;;21.50;88.20;;;;;;5446462;26;21072;-41
2024/04/14 10:25:29;;;;;;;3.20;1.87;;;22.00;90.20;;;;;;5427353;26;20470;-42
2024/04/14 10:27:57;;;;;;;2.20;1.55;;;21.50;87.30;;;;;;5446043;26;20459;-43
2024/04/14 10:30:30;;;;;;;2.30;1.50;;;21.30;88.10;;;;;;5424201;26;20321;-42
2024/04/14 10:33:04;;;;;;;3.20;1.60;;;21.30;88.40;;;;;;5445047;26;20479;-46
2024/04/14 10:35:34;;;;;;;4.53;1.57;;;21.50;84.60;;;;;;5421056;26;20520;-45
2024/04/14 10:38:03;;;;;;;3.53;1.73;;;21.50;84.50;;;;;;5424468;26;20471;-45
2024/04/14 10:40:34;;;;;;;8.70;2.00;;;21.50;84.40;;;;;;5428234;26;21143;-43
2024/04/14 10:43:02;;;;;;;7.73;1.50;;;21.50;84.60;;;;;;5426400;26;21126;-44
2024/04/14 10:45:36;;;;;;;7.50;1.50;;;21.50;84.50;;;;;;5425106;26;21345;-44
2024/04/14 10:48:03;;;;;;;4.67;1.60;;;21.50;84.50;;;;;;5441431;26;20482;-39
2024/04/14 10:50:34;;;;;;;3.53;1.70;;;21.50;84.40;;;;;;5429354;26;20556;-44
2024/04/14 10:53:03;;;;;;;3.30;1.73;;;21.50;85.40;;;;;;5433979;26;21366;-47
2024/04/14 10:55:32;;;;;;;4.37;1.80;;;21.20;84.20;;;;;;5432933;26;21397;-44
2024/04/14 10:58:07;;;;;;;2.57;1.80;;;21.50;84.60;;;;;;5440097;26;20863;-41
2024/04/14 11:00:38;;;;;;;7.13;1.98;;;21.50;84.60;;;;;;5436938;26;20476;-42
2024/04/14 11:03:05;;;;;;;5.57;1.77;;;21.50;84.70;;;;;;5439186;26;21018;-46
2024/04/14 11:05:34;;;;;;;2.20;1.43;;;21.50;84.60;;;;;;5425748;26;20469;-42
2024/04/14 11:08:11;;;;;;;5.70;1.77;;;21.50;84.60;;;;;;5423939;26;21106;-40
2024/04/14 11:10:42;;;;;;;3.20;1.60;;;21.50;84.70;;;;;;5434532;26;20625;-42
2024/04/14 11:13:15;;;;;;;3.58;1.50;;;21.60;84.90;;;;;;5438322;26;20467;-47
2024/04/14 11:15:46;;;;;;;3.20;1.80;;;21.50;84.90;;;;;;5436118;26;20371;-41
2024/04/14 11:18:26;;;;;;;3.13;1.40;;;21.30;84.70;;;;;;5437118;26;21016;-42
2024/04/14 11:21:10;;;;;;;4.93;1.88;;;21.60;85.00;;;;;;5430370;26;20234;-37
2024/04/14 11:23:38;;;;;;;2.95;1.17;;;21.50;83.50;;;;;;5433237;26;20237;-40
2024/04/14 11:26:08;;;;;;;2.05;1.48;;;21.50;83.70;;;;;;5418959;26;20328;-43
2024/04/14 11:28:34;;;;;;;4.17;1.50;;;21.60;83.00;;;;;;5422721;26;21086;-42
2024/04/14 11:31:06;;;;;;;4.90;1.60;;;21.50;82.10;;;;;;5447458;26;20523;-43
2024/04/14 11:33:31;;;;;;;4.53;1.40;;;21.60;81.30;;;;;;5434666;26;20242;-38
2024/04/14 11:36:00;;;;;;;4.27;1.60;;;21.60;81.10;;;;;;5417789;26;21109;-39
2024/04/14 11:38:28;;;;;;;2.50;1.60;;;21.90;81.50;;;;;;5425837;26;20373;-48
2024/04/14 11:40:59;;;;;;;6.30;1.80;;;21.60;82.40;;;;;;5428701;26;20526;-44
2024/04/14 11:43:25;;;;;;;6.53;1.73;;;21.00;81.20;;;;;;5429299;26;20557;-43
2024/04/14 11:45:53;;;;;;;2.63;2.23;;;21.60;82.00;;;;;;5428552;26;20479;-42
2024/04/14 11:48:24;;;;;;;6.40;2.00;;;21.30;81.50;;;;;;5444320;26;20965;-44
2024/04/14 11:50:52;;;;;;;1.83;1.43;;;21.60;81.80;;;;;;5429562;26;20479;-43
2024/04/14 11:53:18;;;;;;;2.97;1.63;;;21.90;82.30;;;;;;5419652;26;20471;-47
2024/04/14 11:55:47;;;;;;;2.30;1.30;;;21.60;82.00;;;;;;5425727;26;20596;-45
2024/04/14 11:58:22;;;;;;;4.07;1.70;;;21.60;82.10;;;;;;5431615;26;20579;-44
2024/04/14 12:00:53;;;;;;;4.13;1.43;;;21.60;82.20;;;;;;5435450;26;21810;-50
2024/04/14 12:03:19;;;;;;;6.17;2.40;;;21.60;81.00;;;;;;5433010;26;20682;-44
2024/04/14 12:05:47;;;;;;;3.50;1.57;;;21.60;80.00;;;;;;5429763;26;20519;-43
2024/04/14 12:08:13;;;;;;;2.10;1.50;;;21.60;78.50;;;;;;5408284;26;20242;-43
2024/04/14 12:10:41;;;;;;;3.30;2.00;;;21.60;76.50;;;;;;5422194;26;20456;-42
2024/04/14 12:13:07;;;;;;;2.93;1.47;;;21.50;76.60;;;;;;5437208;26;20251;-48
2024/04/14 12:15:39;;;;;;;2.73;1.23;;;21.50;73.70;;;;;;5429185;26;20519;-47
2024/04/14 12:18:05;;;;;;;3.00;1.50;;;21.50;73.40;;;;;;5432139;26;21230;-47
2024/04/14 12:20:33;;;;;;;2.63;1.40;;;21.50;72.70;;;;;;5424906;26;24185;-42
2024/04/14 12:22:59;;;;;;;3.28;1.65;;;21.30;72.80;;;;;;5417263;26;22310;-43
2024/04/14 12:25:30;;;;;;;4.07;1.40;;;21.50;72.90;;;;;;5432697;26;20250;-43
2024/04/14 12:27:55;;;;;;;5.10;1.50;;;21.50;72.30;;;;;;5430789;26;20334;-43
2024/04/14 12:30:24;;;;;;;3.50;1.33;;;21.20;69.60;;;;;;5426933;26;20472;-43
2024/04/14 12:32:53;;;;;;;3.65;1.35;;;21.50;70.10;;;;;;5439850;26;20618;-36
2024/04/14 12:35:22;;;;;;;3.90;1.55;;;21.50;72.30;;;;;;5410224;26;21565;-41
2024/04/14 12:37:48;;;;;;;3.27;1.33;;;21.50;72.00;;;;;;5435742;26;20340;-44
2024/04/14 12:40:16;;;;;;;2.43;1.23;;;21.50;73.20;;;;;;5415383;26;22759;-45
2024/04/14 12:42:54;;;;;;;5.78;2.75;;;21.50;73.00;;;;;;5428122;26;20846;-45
2024/04/14 12:45:23;;;;;;;3.63;1.27;;;21.50;73.20;;;;;;5428435;26;20911;-42
2024/04/14 12:47:48;;;;;;;3.58;1.33;;;21.50;72.90;;;;;;5424610;26;20550;-45
2024/04/14 12:50:23;;;;;;;3.30;1.43;;;21.50;72.90;;;;;;5435522;26;20239;-40
2024/04/14 12:52:49;;;;;;;3.15;1.20;;;21.50;73.10;;;;;;5418520;26;20793;-39
2024/04/14 12:55:18;;;;;;;2.07;1.70;;;21.50;73.00;;;;;;5424963;26;20239;-45
2024/04/14 12:57:46;;;;;;;2.13;1.40;;;21.50;73.60;;;;;;5442160;26;20548;-42
2024/04/14 13:00:15;;;;;;;2.53;0.98;;;21.50;73.20;;;;;;5431928;26;20269;-46
2024/04/14 13:02:42;;;;;;;2.87;1.23;;;21.50;73.50;;;;;;5437024;26;20234;-46
2024/04/14 13:05:11;;;;;;;3.88;1.70;;;21.60;73.30;;;;;;5438730;26;21149;-43
2024/04/14 13:07:43;;;;;;;4.20;1.35;;;21.50;73.30;;;;;;5416551;26;20268;-48